sensor_id;sensor_type;location;lat;lon;timestamp;temperature;humidity
52189;DHT22;38162;45.926;13.608;2023-06-22T00:01:56;25.70;78.40
52189;DHT22;38162;45.926;13.608;2023-06-22T00:04:22;25.70;78.50
52189;DHT22;38162;45.926;13.608;2023-06-22T00:06:48;25.70;78.90
52189;DHT22;38162;45.926;13.608;2023-06-22T00:09:13;25.70;78.90
52189;DHT22;38162;45.926;13.608;2023-06-22T00:11:39;25.70;79.10
52189;DHT22;38162;45.926;13.608;2023-06-22T00:14:05;25.60;79.20
52189;DHT22;38162;45.926;13.608;2023-06-22T00:16:32;25.60;79.40
52189;DHT22;38162;45.926;13.608;2023-06-22T00:18:58;25.50;79.40
52189;DHT22;38162;45.926;13.608;2023-06-22T00:21:26;25.50;79.80
52189;DHT22;38162;45.926;13.608;2023-06-22T00:23:52;25.40;79.90
52189;DHT22;38162;45.926;13.608;2023-06-22T00:26:18;25.40;80.10
52189;DHT22;38162;45.926;13.608;2023-06-22T00:28:44;25.30;80.30
52189;DHT22;38162;45.926;13.608;2023-06-22T00:31:10;25.30;80.60
52189;DHT22;38162;45.926;13.608;2023-06-22T00:33:36;25.30;80.70
52189;DHT22;38162;45.926;13.608;2023-06-22T00:36:01;25.20;80.80
52189;DHT22;38162;45.926;13.608;2023-06-22T00:38:28;25.20;80.90
52189;DHT22;38162;45.926;13.608;2023-06-22T00:40:54;25.20;81.10
52189;DHT22;38162;45.926;13.608;2023-06-22T00:43:20;25.20;81.10
52189;DHT22;38162;45.926;13.608;2023-06-22T00:45:46;25.10;81.10
52189;DHT22;38162;45.926;13.608;2023-06-22T00:48:13;25.10;81.30
52189;DHT22;38162;45.926;13.608;2023-06-22T00:50:39;25.10;81.40
52189;DHT22;38162;45.926;13.608;2023-06-22T00:53:07;25.10;81.50
52189;DHT22;38162;45.926;13.608;2023-06-22T00:55:38;25.00;81.40
52189;DHT22;38162;45.926;13.608;2023-06-22T00:58:07;25.00;81.40
52189;DHT22;38162;45.926;13.608;2023-06-22T01:00:36;25.00;81.90
52189;DHT22;38162;45.926;13.608;2023-06-22T01:03:02;25.00;81.30
52189;DHT22;38162;45.926;13.608;2023-06-22T01:05:28;25.00;81.10
52189;DHT22;38162;45.926;13.608;2023-06-22T01:15:46;25.00;81.00
52189;DHT22;38162;45.926;13.608;2023-06-22T01:18:17;25.00;81.20
52189;DHT22;38162;45.926;13.608;2023-06-22T01:20:44;25.00;81.10
52189;DHT22;38162;45.926;13.608;2023-06-22T01:23:33;24.90;81.00
52189;DHT22;38162;45.926;13.608;2023-06-22T01:26:13;25.00;81.00
52189;DHT22;38162;45.926;13.608;2023-06-22T01:28:51;24.90;81.00
52189;DHT22;38162;45.926;13.608;2023-06-22T01:31:26;24.90;81.10
52189;DHT22;38162;45.926;13.608;2023-06-22T01:33:55;24.90;81.30
52189;DHT22;38162;45.926;13.608;2023-06-22T01:36:23;24.90;81.40
52189;DHT22;38162;45.926;13.608;2023-06-22T01:38:50;24.90;81.50
52189;DHT22;38162;45.926;13.608;2023-06-22T01:41:18;24.80;81.70
52189;DHT22;38162;45.926;13.608;2023-06-22T01:43:45;24.80;81.90
52189;DHT22;38162;45.926;13.608;2023-06-22T01:46:12;24.80;81.90
52189;DHT22;38162;45.926;13.608;2023-06-22T01:48:38;24.80;82.10
52189;DHT22;38162;45.926;13.608;2023-06-22T01:51:05;24.70;82.20
52189;DHT22;38162;45.926;13.608;2023-06-22T01:53:30;24.70;82.20
52189;DHT22;38162;45.926;13.608;2023-06-22T01:55:57;24.70;82.20
52189;DHT22;38162;45.926;13.608;2023-06-22T01:58:27;24.70;82.30
52189;DHT22;38162;45.926;13.608;2023-06-22T02:01:00;24.70;82.30
52189;DHT22;38162;45.926;13.608;2023-06-22T02:03:38;24.70;82.20
52189;DHT22;38162;45.926;13.608;2023-06-22T02:06:09;24.70;82.00
52189;DHT22;38162;45.926;13.608;2023-06-22T02:08:41;24.70;81.90
52189;DHT22;38162;45.926;13.608;2023-06-22T02:11:13;24.70;81.90
52189;DHT22;38162;45.926;13.608;2023-06-22T02:13:40;24.60;81.80
52189;DHT22;38162;45.926;13.608;2023-06-22T02:16:10;24.70;81.80
52189;DHT22;38162;45.926;13.608;2023-06-22T02:18:37;24.70;81.70
52189;DHT22;38162;45.926;13.608;2023-06-22T02:21:03;24.60;81.50
52189;DHT22;38162;45.926;13.608;2023-06-22T02:23:29;24.60;81.30
52189;DHT22;38162;45.926;13.608;2023-06-22T02:25:54;24.60;81.50
52189;DHT22;38162;45.926;13.608;2023-06-22T02:28:20;24.60;81.60
52189;DHT22;38162;45.926;13.608;2023-06-22T02:30:46;24.60;81.50
52189;DHT22;38162;45.926;13.608;2023-06-22T02:33:12;24.60;81.60
52189;DHT22;38162;45.926;13.608;2023-06-22T02:35:37;24.50;81.70
52189;DHT22;38162;45.926;13.608;2023-06-22T02:38:05;24.50;82.00
52189;DHT22;38162;45.926;13.608;2023-06-22T02:40:31;24.50;82.00
52189;DHT22;38162;45.926;13.608;2023-06-22T02:42:59;24.50;82.20
52189;DHT22;38162;45.926;13.608;2023-06-22T02:45:27;24.40;82.20
52189;DHT22;38162;45.926;13.608;2023-06-22T02:47:53;24.50;82.30
52189;DHT22;38162;45.926;13.608;2023-06-22T02:50:19;24.40;82.20
52189;DHT22;38162;45.926;13.608;2023-06-22T02:52:44;24.40;82.20
52189;DHT22;38162;45.926;13.608;2023-06-22T02:55:10;24.40;82.20
52189;DHT22;38162;45.926;13.608;2023-06-22T02:57:36;24.40;82.10
52189;DHT22;38162;45.926;13.608;2023-06-22T03:00:04;24.40;82.10
52189;DHT22;38162;45.926;13.608;2023-06-22T03:02:43;24.40;82.10
52189;DHT22;38162;45.926;13.608;2023-06-22T03:05:09;24.40;82.00
52189;DHT22;38162;45.926;13.608;2023-06-22T03:07:42;24.30;82.00
52189;DHT22;38162;45.926;13.608;2023-06-22T03:10:09;24.40;82.10
52189;DHT22;38162;45.926;13.608;2023-06-22T03:12:35;24.30;81.80
52189;DHT22;38162;45.926;13.608;2023-06-22T03:15:01;24.30;81.80
52189;DHT22;38162;45.926;13.608;2023-06-22T03:17:27;24.30;81.80
52189;DHT22;38162;45.926;13.608;2023-06-22T03:19:53;24.30;81.80
52189;DHT22;38162;45.926;13.608;2023-06-22T03:22:18;24.30;81.90
52189;DHT22;38162;45.926;13.608;2023-06-22T03:24:44;24.30;82.10
52189;DHT22;38162;45.926;13.608;2023-06-22T03:27:10;24.20;82.20
52189;DHT22;38162;45.926;13.608;2023-06-22T03:29:35;24.20;82.20
52189;DHT22;38162;45.926;13.608;2023-06-22T03:32:01;24.20;82.00
52189;DHT22;38162;45.926;13.608;2023-06-22T03:34:27;24.20;81.80
52189;DHT22;38162;45.926;13.608;2023-06-22T03:36:53;24.10;81.80
52189;DHT22;38162;45.926;13.608;2023-06-22T03:39:18;24.20;82.10
52189;DHT22;38162;45.926;13.608;2023-06-22T03:41:45;24.20;82.30
52189;DHT22;38162;45.926;13.608;2023-06-22T03:44:11;24.10;82.40
52189;DHT22;38162;45.926;13.608;2023-06-22T03:46:38;24.10;82.40
52189;DHT22;38162;45.926;13.608;2023-06-22T03:49:03;24.10;82.50
52189;DHT22;38162;45.926;13.608;2023-06-22T03:51:30;24.10;82.70
52189;DHT22;38162;45.926;13.608;2023-06-22T03:53:56;24.00;82.90
52189;DHT22;38162;45.926;13.608;2023-06-22T03:56:22;24.00;83.00
52189;DHT22;38162;45.926;13.608;2023-06-22T03:58:47;24.00;83.20
52189;DHT22;38162;45.926;13.608;2023-06-22T04:01:13;24.00;83.20
52189;DHT22;38162;45.926;13.608;2023-06-22T04:03:40;24.00;83.30
52189;DHT22;38162;45.926;13.608;2023-06-22T04:06:06;24.00;83.40
52189;DHT22;38162;45.926;13.608;2023-06-22T04:08:32;23.90;83.60
52189;DHT22;38162;45.926;13.608;2023-06-22T04:10:58;23.90;83.70
52189;DHT22;38162;45.926;13.608;2023-06-22T04:13:23;23.90;83.80
52189;DHT22;38162;45.926;13.608;2023-06-22T04:15:49;23.90;83.70
52189;DHT22;38162;45.926;13.608;2023-06-22T04:18:15;23.90;83.70
52189;DHT22;38162;45.926;13.608;2023-06-22T04:20:41;23.90;83.70
52189;DHT22;38162;45.926;13.608;2023-06-22T04:23:06;23.90;83.80
52189;DHT22;38162;45.926;13.608;2023-06-22T04:25:32;23.90;83.80
52189;DHT22;38162;45.926;13.608;2023-06-22T04:27:58;24.00;83.90
52189;DHT22;38162;45.926;13.608;2023-06-22T04:30:24;24.00;84.00
52189;DHT22;38162;45.926;13.608;2023-06-22T04:32:49;24.00;84.20
52189;DHT22;38162;45.926;13.608;2023-06-22T04:35:24;24.00;84.40
52189;DHT22;38162;45.926;13.608;2023-06-22T04:37:50;24.00;84.40
52189;DHT22;38162;45.926;13.608;2023-06-22T04:40:24;24.00;84.60
52189;DHT22;38162;45.926;13.608;2023-06-22T04:42:50;24.10;84.80
52189;DHT22;38162;45.926;13.608;2023-06-22T04:45:19;24.00;84.70
52189;DHT22;38162;45.926;13.608;2023-06-22T04:47:46;24.00;84.70
52189;DHT22;38162;45.926;13.608;2023-06-22T04:50:12;24.00;84.50
52189;DHT22;38162;45.926;13.608;2023-06-22T04:52:38;24.00;84.50
52189;DHT22;38162;45.926;13.608;2023-06-22T04:55:04;24.00;84.50
52189;DHT22;38162;45.926;13.608;2023-06-22T04:57:30;24.10;84.80
52189;DHT22;38162;45.926;13.608;2023-06-22T04:59:58;24.10;84.80
52189;DHT22;38162;45.926;13.608;2023-06-22T05:02:37;24.10;84.80
52189;DHT22;38162;45.926;13.608;2023-06-22T05:05:03;24.10;84.90
52189;DHT22;38162;45.926;13.608;2023-06-22T05:07:33;24.10;84.90
52189;DHT22;38162;45.926;13.608;2023-06-22T05:09:59;24.10;84.90
52189;DHT22;38162;45.926;13.608;2023-06-22T05:12:25;24.20;84.80
52189;DHT22;38162;45.926;13.608;2023-06-22T05:14:51;24.20;84.50
52189;DHT22;38162;45.926;13.608;2023-06-22T05:17:17;24.20;84.30
52189;DHT22;38162;45.926;13.608;2023-06-22T05:19:44;24.20;84.30
52189;DHT22;38162;45.926;13.608;2023-06-22T05:22:15;24.20;84.10
52189;DHT22;38162;45.926;13.608;2023-06-22T05:24:42;24.30;84.40
52189;DHT22;38162;45.926;13.608;2023-06-22T05:27:08;24.30;84.30
52189;DHT22;38162;45.926;13.608;2023-06-22T05:29:34;24.30;84.20
52189;DHT22;38162;45.926;13.608;2023-06-22T05:32:01;24.30;84.10
52189;DHT22;38162;45.926;13.608;2023-06-22T05:34:26;24.30;84.20
52189;DHT22;38162;45.926;13.608;2023-06-22T05:36:52;24.40;84.00
52189;DHT22;38162;45.926;13.608;2023-06-22T05:39:18;24.40;83.80
52189;DHT22;38162;45.926;13.608;2023-06-22T05:41:45;24.40;83.90
52189;DHT22;38162;45.926;13.608;2023-06-22T05:44:11;24.40;84.20
52189;DHT22;38162;45.926;13.608;2023-06-22T05:46:40;24.40;84.10
52189;DHT22;38162;45.926;13.608;2023-06-22T05:49:06;24.50;84.30
52189;DHT22;38162;45.926;13.608;2023-06-22T05:51:31;24.50;84.50
52189;DHT22;38162;45.926;13.608;2023-06-22T05:53:57;24.50;84.50
52189;DHT22;38162;45.926;13.608;2023-06-22T05:56:23;24.60;84.70
52189;DHT22;38162;45.926;13.608;2023-06-22T05:58:48;24.60;84.60
52189;DHT22;38162;45.926;13.608;2023-06-22T06:01:14;24.70;84.50
52189;DHT22;38162;45.926;13.608;2023-06-22T06:03:41;24.70;84.60
52189;DHT22;38162;45.926;13.608;2023-06-22T06:06:07;24.70;84.60
52189;DHT22;38162;45.926;13.608;2023-06-22T06:08:33;24.80;84.40
52189;DHT22;38162;45.926;13.608;2023-06-22T06:10:59;24.90;84.30
52189;DHT22;38162;45.926;13.608;2023-06-22T06:13:24;24.90;84.30
52189;DHT22;38162;45.926;13.608;2023-06-22T06:15:50;24.90;84.30
52189;DHT22;38162;45.926;13.608;2023-06-22T06:18:17;25.00;84.20
52189;DHT22;38162;45.926;13.608;2023-06-22T06:20:42;25.00;83.90
52189;DHT22;38162;45.926;13.608;2023-06-22T06:23:08;25.10;83.90
52189;DHT22;38162;45.926;13.608;2023-06-22T06:25:34;25.10;83.80
52189;DHT22;38162;45.926;13.608;2023-06-22T06:28:00;25.10;83.50
52189;DHT22;38162;45.926;13.608;2023-06-22T06:30:25;25.20;83.30
52189;DHT22;38162;45.926;13.608;2023-06-22T06:32:51;25.20;83.30
52189;DHT22;38162;45.926;13.608;2023-06-22T06:35:17;25.20;83.40
52189;DHT22;38162;45.926;13.608;2023-06-22T06:37:45;25.30;83.10
52189;DHT22;38162;45.926;13.608;2023-06-22T06:40:12;25.30;83.00
52189;DHT22;38162;45.926;13.608;2023-06-22T06:42:43;25.40;82.70
52189;DHT22;38162;45.926;13.608;2023-06-22T06:45:22;25.40;82.50
52189;DHT22;38162;45.926;13.608;2023-06-22T06:47:49;25.40;82.00
52189;DHT22;38162;45.926;13.608;2023-06-22T06:50:15;25.50;82.00
52189;DHT22;38162;45.926;13.608;2023-06-22T06:52:42;25.50;82.10
52189;DHT22;38162;45.926;13.608;2023-06-22T06:55:09;25.60;82.00
52189;DHT22;38162;45.926;13.608;2023-06-22T06:57:41;25.60;81.90
52189;DHT22;38162;45.926;13.608;2023-06-22T07:00:09;25.70;82.00
52189;DHT22;38162;45.926;13.608;2023-06-22T07:02:38;25.70;81.60
52189;DHT22;38162;45.926;13.608;2023-06-22T07:05:05;25.70;81.60
52189;DHT22;38162;45.926;13.608;2023-06-22T07:07:32;25.80;81.50
52189;DHT22;38162;45.926;13.608;2023-06-22T07:09:58;25.80;81.00
52189;DHT22;38162;45.926;13.608;2023-06-22T07:12:24;25.80;80.60
52189;DHT22;38162;45.926;13.608;2023-06-22T07:14:49;25.90;80.20
52189;DHT22;38162;45.926;13.608;2023-06-22T07:17:16;26.00;80.10
52189;DHT22;38162;45.926;13.608;2023-06-22T07:19:42;26.00;80.70
52189;DHT22;38162;45.926;13.608;2023-06-22T07:22:08;26.00;80.70
52189;DHT22;38162;45.926;13.608;2023-06-22T07:24:33;26.00;80.50
52189;DHT22;38162;45.926;13.608;2023-06-22T07:26:59;26.10;80.00
52189;DHT22;38162;45.926;13.608;2023-06-22T07:29:25;26.20;79.40
52189;DHT22;38162;45.926;13.608;2023-06-22T07:31:52;26.20;79.20
52189;DHT22;38162;45.926;13.608;2023-06-22T07:34:19;26.20;79.30
52189;DHT22;38162;45.926;13.608;2023-06-22T07:36:45;26.30;79.30
52189;DHT22;38162;45.926;13.608;2023-06-22T07:39:11;26.30;79.00
52189;DHT22;38162;45.926;13.608;2023-06-22T07:41:39;26.30;79.10
52189;DHT22;38162;45.926;13.608;2023-06-22T07:44:06;26.40;78.50
52189;DHT22;38162;45.926;13.608;2023-06-22T07:46:32;26.40;78.40
52189;DHT22;38162;45.926;13.608;2023-06-22T07:48:59;26.50;78.70
52189;DHT22;38162;45.926;13.608;2023-06-22T07:51:25;26.50;78.70
52189;DHT22;38162;45.926;13.608;2023-06-22T07:53:51;26.60;78.50
52189;DHT22;38162;45.926;13.608;2023-06-22T07:56:16;26.60;78.30
52189;DHT22;38162;45.926;13.608;2023-06-22T07:58:46;26.60;77.90
52189;DHT22;38162;45.926;13.608;2023-06-22T08:01:12;26.70;78.00
52189;DHT22;38162;45.926;13.608;2023-06-22T08:03:38;26.70;78.10
52189;DHT22;38162;45.926;13.608;2023-06-22T08:06:06;26.80;78.00
52189;DHT22;38162;45.926;13.608;2023-06-22T08:08:34;26.90;78.20
52189;DHT22;38162;45.926;13.608;2023-06-22T08:11:00;26.90;78.60
52189;DHT22;38162;45.926;13.608;2023-06-22T08:13:26;26.90;78.70
52189;DHT22;38162;45.926;13.608;2023-06-22T08:15:51;27.00;78.90
52189;DHT22;38162;45.926;13.608;2023-06-22T08:18:17;27.00;79.10
52189;DHT22;38162;45.926;13.608;2023-06-22T08:20:43;27.10;79.60
52189;DHT22;38162;45.926;13.608;2023-06-22T08:23:08;27.10;79.20
52189;DHT22;38162;45.926;13.608;2023-06-22T08:25:35;27.10;79.50
52189;DHT22;38162;45.926;13.608;2023-06-22T08:28:02;27.20;79.50
52189;DHT22;38162;45.926;13.608;2023-06-22T08:30:28;27.30;79.40
52189;DHT22;38162;45.926;13.608;2023-06-22T08:32:53;27.30;79.20
52189;DHT22;38162;45.926;13.608;2023-06-22T08:35:23;27.30;79.00
52189;DHT22;38162;45.926;13.608;2023-06-22T08:37:49;27.40;79.20
52189;DHT22;38162;45.926;13.608;2023-06-22T08:40:18;27.40;79.60
52189;DHT22;38162;45.926;13.608;2023-06-22T08:42:45;27.50;79.40
52189;DHT22;38162;45.926;13.608;2023-06-22T08:45:12;27.50;79.70
52189;DHT22;38162;45.926;13.608;2023-06-22T08:47:38;27.60;80.00
52189;DHT22;38162;45.926;13.608;2023-06-22T08:50:05;27.70;79.90
52189;DHT22;38162;45.926;13.608;2023-06-22T08:52:32;27.70;79.90
52189;DHT22;38162;45.926;13.608;2023-06-22T08:54:58;27.70;80.20
52189;DHT22;38162;45.926;13.608;2023-06-22T08:57:23;27.80;80.40
52189;DHT22;38162;45.926;13.608;2023-06-22T08:59:49;27.80;80.20
52189;DHT22;38162;45.926;13.608;2023-06-22T09:02:17;27.90;80.50
52189;DHT22;38162;45.926;13.608;2023-06-22T09:04:43;27.90;80.80
52189;DHT22;38162;45.926;13.608;2023-06-22T09:07:09;28.00;80.70
52189;DHT22;38162;45.926;13.608;2023-06-22T09:09:35;28.10;80.70
52189;DHT22;38162;45.926;13.608;2023-06-22T09:12:01;28.10;81.30
52189;DHT22;38162;45.926;13.608;2023-06-22T09:14:26;28.20;81.70
52189;DHT22;38162;45.926;13.608;2023-06-22T09:16:52;28.20;81.70
52189;DHT22;38162;45.926;13.608;2023-06-22T09:19:19;28.30;81.50
52189;DHT22;38162;45.926;13.608;2023-06-22T09:21:45;28.40;81.30
52189;DHT22;38162;45.926;13.608;2023-06-22T09:24:14;28.40;81.80
52189;DHT22;38162;45.926;13.608;2023-06-22T09:26:39;28.40;81.40
52189;DHT22;38162;45.926;13.608;2023-06-22T09:29:06;28.50;81.10
52189;DHT22;38162;45.926;13.608;2023-06-22T09:31:32;28.50;80.70
52189;DHT22;38162;45.926;13.608;2023-06-22T09:33:58;28.60;81.20
52189;DHT22;38162;45.926;13.608;2023-06-22T09:36:24;28.60;81.40
52189;DHT22;38162;45.926;13.608;2023-06-22T09:38:50;28.70;80.90
52189;DHT22;38162;45.926;13.608;2023-06-22T09:41:24;28.70;80.70
52189;DHT22;38162;45.926;13.608;2023-06-22T09:43:50;28.80;80.50
52189;DHT22;38162;45.926;13.608;2023-06-22T09:46:16;28.80;80.10
52189;DHT22;38162;45.926;13.608;2023-06-22T09:48:42;28.80;80.10
52189;DHT22;38162;45.926;13.608;2023-06-22T09:51:09;28.90;80.40
52189;DHT22;38162;45.926;13.608;2023-06-22T09:53:34;28.90;80.50
52189;DHT22;38162;45.926;13.608;2023-06-22T09:56:01;29.00;81.00
52189;DHT22;38162;45.926;13.608;2023-06-22T09:58:27;29.00;80.40
52189;DHT22;38162;45.926;13.608;2023-06-22T10:00:53;29.00;80.60
52189;DHT22;38162;45.926;13.608;2023-06-22T10:03:20;29.10;80.80
52189;DHT22;38162;45.926;13.608;2023-06-22T10:05:49;29.10;80.70
52189;DHT22;38162;45.926;13.608;2023-06-22T10:08:15;29.20;80.50
52189;DHT22;38162;45.926;13.608;2023-06-22T10:10:40;29.20;80.80
52189;DHT22;38162;45.926;13.608;2023-06-22T10:13:10;29.30;80.70
52189;DHT22;38162;45.926;13.608;2023-06-22T10:15:37;29.30;80.20
52189;DHT22;38162;45.926;13.608;2023-06-22T10:18:03;29.40;79.90
52189;DHT22;38162;45.926;13.608;2023-06-22T10:20:29;29.40;80.00
52189;DHT22;38162;45.926;13.608;2023-06-22T10:22:55;29.50;80.40
52189;DHT22;38162;45.926;13.608;2023-06-22T10:25:21;29.50;80.10
52189;DHT22;38162;45.926;13.608;2023-06-22T10:27:47;29.60;79.60
52189;DHT22;38162;45.926;13.608;2023-06-22T10:30:14;29.60;79.10
52189;DHT22;38162;45.926;13.608;2023-06-22T10:32:43;29.70;79.50
52189;DHT22;38162;45.926;13.608;2023-06-22T10:35:10;29.70;79.40
52189;DHT22;38162;45.926;13.608;2023-06-22T10:37:44;29.80;79.10
52189;DHT22;38162;45.926;13.608;2023-06-22T10:40:15;29.80;79.10
52189;DHT22;38162;45.926;13.608;2023-06-22T10:42:41;29.80;79.30
52189;DHT22;38162;45.926;13.608;2023-06-22T10:45:08;29.90;78.90
52189;DHT22;38162;45.926;13.608;2023-06-22T10:47:35;29.90;78.80
52189;DHT22;38162;45.926;13.608;2023-06-22T10:50:01;29.90;78.90
52189;DHT22;38162;45.926;13.608;2023-06-22T10:52:27;30.00;79.20
52189;DHT22;38162;45.926;13.608;2023-06-22T10:54:56;30.00;79.40
52189;DHT22;38162;45.926;13.608;2023-06-22T10:57:22;30.10;79.30
52189;DHT22;38162;45.926;13.608;2023-06-22T10:59:48;30.10;78.80
52189;DHT22;38162;45.926;13.608;2023-06-22T11:02:17;30.20;77.90
52189;DHT22;38162;45.926;13.608;2023-06-22T11:04:44;30.30;78.10
52189;DHT22;38162;45.926;13.608;2023-06-22T11:07:09;30.30;78.10
52189;DHT22;38162;45.926;13.608;2023-06-22T11:09:35;30.30;77.90
52189;DHT22;38162;45.926;13.608;2023-06-22T11:12:05;30.40;77.70
52189;DHT22;38162;45.926;13.608;2023-06-22T11:14:31;30.40;77.60
52189;DHT22;38162;45.926;13.608;2023-06-22T11:16:59;30.40;77.50
52189;DHT22;38162;45.926;13.608;2023-06-22T11:19:25;30.50;77.50
52189;DHT22;38162;45.926;13.608;2023-06-22T11:21:51;30.40;77.00
52189;DHT22;38162;45.926;13.608;2023-06-22T11:24:17;30.40;76.70
52189;DHT22;38162;45.926;13.608;2023-06-22T11:26:44;30.40;76.50
52189;DHT22;38162;45.926;13.608;2023-06-22T11:29:10;30.50;77.70
52189;DHT22;38162;45.926;13.608;2023-06-22T11:31:36;30.50;77.80
52189;DHT22;38162;45.926;13.608;2023-06-22T11:34:02;30.50;77.70
52189;DHT22;38162;45.926;13.608;2023-06-22T11:36:29;30.50;77.30
52189;DHT22;38162;45.926;13.608;2023-06-22T11:38:58;30.50;77.10
52189;DHT22;38162;45.926;13.608;2023-06-22T11:41:26;30.50;76.20
52189;DHT22;38162;45.926;13.608;2023-06-22T11:43:52;30.40;75.60
52189;DHT22;38162;45.926;13.608;2023-06-22T11:46:18;30.40;76.00
52189;DHT22;38162;45.926;13.608;2023-06-22T11:48:44;30.40;76.20
52189;DHT22;38162;45.926;13.608;2023-06-22T11:51:11;30.30;76.30
52189;DHT22;38162;45.926;13.608;2023-06-22T11:53:36;30.30;76.30
52189;DHT22;38162;45.926;13.608;2023-06-22T11:56:03;30.20;76.20
52189;DHT22;38162;45.926;13.608;2023-06-22T11:58:28;30.20;76.30
52189;DHT22;38162;45.926;13.608;2023-06-22T12:00:54;30.20;76.40
52189;DHT22;38162;45.926;13.608;2023-06-22T12:03:20;30.20;76.00
52189;DHT22;38162;45.926;13.608;2023-06-22T12:05:50;30.20;75.60
52189;DHT22;38162;45.926;13.608;2023-06-22T12:08:19;30.10;75.90
52189;DHT22;38162;45.926;13.608;2023-06-22T12:10:45;30.10;76.10
52189;DHT22;38162;45.926;13.608;2023-06-22T12:13:11;30.20;76.10
52189;DHT22;38162;45.926;13.608;2023-06-22T12:15:36;30.20;76.00
52189;DHT22;38162;45.926;13.608;2023-06-22T12:18:02;30.20;76.30
52189;DHT22;38162;45.926;13.608;2023-06-22T12:20:28;30.30;76.60
52189;DHT22;38162;45.926;13.608;2023-06-22T12:22:54;30.30;76.90
52189;DHT22;38162;45.926;13.608;2023-06-22T12:25:23;30.30;76.80
52189;DHT22;38162;45.926;13.608;2023-06-22T12:27:49;30.30;76.20
52189;DHT22;38162;45.926;13.608;2023-06-22T12:30:18;30.40;75.60
52189;DHT22;38162;45.926;13.608;2023-06-22T12:32:44;30.40;75.80
52189;DHT22;38162;45.926;13.608;2023-06-22T12:35:10;30.40;75.90
52189;DHT22;38162;45.926;13.608;2023-06-22T12:37:41;30.40;75.60
52189;DHT22;38162;45.926;13.608;2023-06-22T12:40:07;30.50;76.00
52189;DHT22;38162;45.926;13.608;2023-06-22T12:42:33;30.50;75.30
52189;DHT22;38162;45.926;13.608;2023-06-22T12:44:59;30.60;75.10
52189;DHT22;38162;45.926;13.608;2023-06-22T12:47:25;30.60;75.80
52189;DHT22;38162;45.926;13.608;2023-06-22T12:49:50;30.60;74.90
52189;DHT22;38162;45.926;13.608;2023-06-22T12:52:16;30.70;74.00
52189;DHT22;38162;45.926;13.608;2023-06-22T12:54:42;30.70;73.50
52189;DHT22;38162;45.926;13.608;2023-06-22T12:57:08;30.80;73.70
52189;DHT22;38162;45.926;13.608;2023-06-22T12:59:34;30.80;72.80
52189;DHT22;38162;45.926;13.608;2023-06-22T13:01:59;30.90;72.50
52189;DHT22;38162;45.926;13.608;2023-06-22T13:04:25;30.90;72.60
52189;DHT22;38162;45.926;13.608;2023-06-22T13:06:51;30.90;72.60
52189;DHT22;38162;45.926;13.608;2023-06-22T13:09:18;30.90;72.00
52189;DHT22;38162;45.926;13.608;2023-06-22T13:11:44;31.00;72.50
52189;DHT22;38162;45.926;13.608;2023-06-22T13:14:10;31.00;73.60
52189;DHT22;38162;45.926;13.608;2023-06-22T13:16:36;31.00;73.50
52189;DHT22;38162;45.926;13.608;2023-06-22T13:19:02;31.00;73.40
52189;DHT22;38162;45.926;13.608;2023-06-22T13:21:27;31.00;72.90
52189;DHT22;38162;45.926;13.608;2023-06-22T13:23:53;31.00;73.40
52189;DHT22;38162;45.926;13.608;2023-06-22T13:26:20;31.00;73.40
52189;DHT22;38162;45.926;13.608;2023-06-22T13:28:46;30.90;72.80
52189;DHT22;38162;45.926;13.608;2023-06-22T13:31:11;31.00;72.70
52189;DHT22;38162;45.926;13.608;2023-06-22T13:33:38;30.90;72.20
52189;DHT22;38162;45.926;13.608;2023-06-22T13:36:04;31.00;72.90
52189;DHT22;38162;45.926;13.608;2023-06-22T13:38:31;31.00;72.90
52189;DHT22;38162;45.926;13.608;2023-06-22T13:40:57;31.00;72.20
52189;DHT22;38162;45.926;13.608;2023-06-22T13:43:26;31.10;71.90
52189;DHT22;38162;45.926;13.608;2023-06-22T13:45:52;31.00;71.90
52189;DHT22;38162;45.926;13.608;2023-06-22T13:48:18;31.10;71.60
52189;DHT22;38162;45.926;13.608;2023-06-22T13:50:44;31.10;71.70
52189;DHT22;38162;45.926;13.608;2023-06-22T13:53:09;31.10;71.80
52189;DHT22;38162;45.926;13.608;2023-06-22T13:55:35;31.20;71.30
52189;DHT22;38162;45.926;13.608;2023-06-22T13:58:01;31.10;70.90
52189;DHT22;38162;45.926;13.608;2023-06-22T14:00:26;31.20;71.10
52189;DHT22;38162;45.926;13.608;2023-06-22T14:02:53;31.20;70.10
52189;DHT22;38162;45.926;13.608;2023-06-22T14:05:20;31.20;70.00
52189;DHT22;38162;45.926;13.608;2023-06-22T14:07:45;31.20;69.70
52189;DHT22;38162;45.926;13.608;2023-06-22T14:10:11;31.20;70.10
52189;DHT22;38162;45.926;13.608;2023-06-22T14:12:37;31.20;69.80
52189;DHT22;38162;45.926;13.608;2023-06-22T14:15:03;31.20;69.20
52189;DHT22;38162;45.926;13.608;2023-06-22T14:17:29;31.30;70.10
52189;DHT22;38162;45.926;13.608;2023-06-22T14:19:55;31.30;70.30
52189;DHT22;38162;45.926;13.608;2023-06-22T14:22:22;31.30;68.70
52189;DHT22;38162;45.926;13.608;2023-06-22T14:24:48;31.30;68.20
52189;DHT22;38162;45.926;13.608;2023-06-22T14:27:15;31.30;67.60
52189;DHT22;38162;45.926;13.608;2023-06-22T14:29:41;31.30;67.20
52189;DHT22;38162;45.926;13.608;2023-06-22T14:32:07;31.30;67.50
52189;DHT22;38162;45.926;13.608;2023-06-22T14:34:33;31.30;67.30
52189;DHT22;38162;45.926;13.608;2023-06-22T14:37:02;31.30;67.10
52189;DHT22;38162;45.926;13.608;2023-06-22T14:39:28;31.30;67.00
52189;DHT22;38162;45.926;13.608;2023-06-22T14:41:54;31.30;66.50
52189;DHT22;38162;45.926;13.608;2023-06-22T14:44:19;31.30;66.10
52189;DHT22;38162;45.926;13.608;2023-06-22T14:46:45;31.20;65.50
52189;DHT22;38162;45.926;13.608;2023-06-22T14:49:11;31.20;66.80
52189;DHT22;38162;45.926;13.608;2023-06-22T14:51:37;31.20;65.10
52189;DHT22;38162;45.926;13.608;2023-06-22T14:54:02;31.20;65.40
52189;DHT22;38162;45.926;13.608;2023-06-22T14:56:28;31.20;64.80
52189;DHT22;38162;45.926;13.608;2023-06-22T14:58:55;31.20;64.80
52189;DHT22;38162;45.926;13.608;2023-06-22T15:01:21;31.20;64.30
52189;DHT22;38162;45.926;13.608;2023-06-22T15:03:47;31.20;64.30
52189;DHT22;38162;45.926;13.608;2023-06-22T15:06:13;31.20;64.80
52189;DHT22;38162;45.926;13.608;2023-06-22T15:08:39;31.20;63.50
52189;DHT22;38162;45.926;13.608;2023-06-22T15:11:05;31.30;62.10
52189;DHT22;38162;45.926;13.608;2023-06-22T15:13:31;31.20;62.00
52189;DHT22;38162;45.926;13.608;2023-06-22T15:16:01;31.20;61.90
52189;DHT22;38162;45.926;13.608;2023-06-22T15:18:29;31.20;62.00
52189;DHT22;38162;45.926;13.608;2023-06-22T15:20:54;31.20;62.30